sensor_id;sensor_type;location;lat;lon;timestamp;temperature;humidity
9219;DHT22;4644;48.858;9.184;2023-02-26T00:01:29;0.20;99.90
9219;DHT22;4644;48.858;9.184;2023-02-26T00:03:59;0.10;99.90
9219;DHT22;4644;48.858;9.184;2023-02-26T00:06:27;0.10;99.90
9219;DHT22;4644;48.858;9.184;2023-02-26T00:08:56;0.10;99.90
9219;DHT22;4644;48.858;9.184;2023-02-26T00:11:23;0.00;99.90
9219;DHT22;4644;48.858;9.184;2023-02-26T00:13:51;0.00;99.90
9219;DHT22;4644;48.858;9.184;2023-02-26T00:16:25;0.00;99.90
9219;DHT22;4644;48.858;9.184;2023-02-26T00:18:53;0.00;99.90
9219;DHT22;4644;48.858;9.184;2023-02-26T00:21:22;0.00;99.90
9219;DHT22;4644;48.858;9.184;2023-02-26T00:23:50;0.00;99.90
9219;DHT22;4644;48.858;9.184;2023-02-26T00:26:18;0.00;99.90
9219;DHT22;4644;48.858;9.184;2023-02-26T00:28:45;-0.10;99.90
9219;DHT22;4644;48.858;9.184;2023-02-26T00:31:14;-0.10;99.90
9219;DHT22;4644;48.858;9.184;2023-02-26T00:33:43;-0.10;99.90
9219;DHT22;4644;48.858;9.184;2023-02-26T00:36:19;-0.20;99.90
9219;DHT22;4644;48.858;9.184;2023-02-26T00:38:56;-0.20;99.90
9219;DHT22;4644;48.858;9.184;2023-02-26T00:41:37;-0.20;99.90
9219;DHT22;4644;48.858;9.184;2023-02-26T00:44:08;-0.20;99.90
9219;DHT22;4644;48.858;9.184;2023-02-26T00:46:42;-0.20;99.90
9219;DHT22;4644;48.858;9.184;2023-02-26T00:49:20;-0.30;99.90
9219;DHT22;4644;48.858;9.184;2023-02-26T00:51:51;-0.30;99.90
9219;DHT22;4644;48.858;9.184;2023-02-26T00:54:21;-0.30;99.90
9219;DHT22;4644;48.858;9.184;2023-02-26T00:56:49;-0.30;99.90
9219;DHT22;4644;48.858;9.184;2023-02-26T00:59:17;-0.40;99.90
9219;DHT22;4644;48.858;9.184;2023-02-26T01:01:44;-0.40;99.90
9219;DHT22;4644;48.858;9.184;2023-02-26T01:04:14;-0.40;99.90
9219;DHT22;4644;48.858;9.184;2023-02-26T01:06:44;-0.40;99.90
9219;DHT22;4644;48.858;9.184;2023-02-26T01:09:16;-0.50;99.90
9219;DHT22;4644;48.858;9.184;2023-02-26T01:11:48;-0.50;99.90
9219;DHT22;4644;48.858;9.184;2023-02-26T01:14:16;-0.50;99.90
9219;DHT22;4644;48.858;9.184;2023-02-26T01:16:51;-0.60;99.90
9219;DHT22;4644;48.858;9.184;2023-02-26T01:19:27;-0.60;99.90
9219;DHT22;4644;48.858;9.184;2023-02-26T01:22:00;-0.60;99.90
9219;DHT22;4644;48.858;9.184;2023-02-26T01:24:30;-0.60;99.90
9219;DHT22;4644;48.858;9.184;2023-02-26T01:26:58;-0.60;99.90
9219;DHT22;4644;48.858;9.184;2023-02-26T01:29:25;-0.70;99.90
9219;DHT22;4644;48.858;9.184;2023-02-26T01:31:58;-0.70;99.90
9219;DHT22;4644;48.858;9.184;2023-02-26T01:34:34;-0.80;99.90
9219;DHT22;4644;48.858;9.184;2023-02-26T01:37:10;-0.80;99.90
9219;DHT22;4644;48.858;9.184;2023-02-26T01:39:44;-0.80;99.90
9219;DHT22;4644;48.858;9.184;2023-02-26T01:42:14;-0.90;99.90
9219;DHT22;4644;48.858;9.184;2023-02-26T01:44:54;-0.90;99.90
9219;DHT22;4644;48.858;9.184;2023-02-26T01:47:27;-0.90;99.90
9219;DHT22;4644;48.858;9.184;2023-02-26T01:49:58;-1.00;99.90
9219;DHT22;4644;48.858;9.184;2023-02-26T01:55:34;-1.00;99.90
9219;DHT22;4644;48.858;9.184;2023-02-26T01:58:02;-1.00;99.90
9219;DHT22;4644;48.858;9.184;2023-02-26T02:00:30;-1.10;99.90
9219;DHT22;4644;48.858;9.184;2023-02-26T02:02:57;-1.10;99.90
9219;DHT22;4644;48.858;9.184;2023-02-26T02:05:29;-1.10;99.90
9219;DHT22;4644;48.858;9.184;2023-02-26T02:07:57;-1.10;99.90
9219;DHT22;4644;48.858;9.184;2023-02-26T02:10:25;-1.10;99.90
9219;DHT22;4644;48.858;9.184;2023-02-26T02:13:01;-1.20;99.90
9219;DHT22;4644;48.858;9.184;2023-02-26T02:15:37;-1.20;99.90
9219;DHT22;4644;48.858;9.184;2023-02-26T02:18:11;-1.20;99.90
9219;DHT22;4644;48.858;9.184;2023-02-26T02:21:01;-1.20;99.90
9219;DHT22;4644;48.858;9.184;2023-02-26T02:23:38;-1.20;99.90
9219;DHT22;4644;48.858;9.184;2023-02-26T02:26:52;-1.30;99.90
9219;DHT22;4644;48.858;9.184;2023-02-26T02:29:53;-1.30;99.90
9219;DHT22;4644;48.858;9.184;2023-02-26T02:32:28;-1.30;99.90
9219;DHT22;4644;48.858;9.184;2023-02-26T02:35:02;-1.30;99.90
9219;DHT22;4644;48.858;9.184;2023-02-26T02:37:36;-1.40;99.90
9219;DHT22;4644;48.858;9.184;2023-02-26T02:40:10;-1.40;99.90
9219;DHT22;4644;48.858;9.184;2023-02-26T02:42:41;-1.40;99.90
9219;DHT22;4644;48.858;9.184;2023-02-26T02:45:16;-1.50;99.90
9219;DHT22;4644;48.858;9.184;2023-02-26T02:47:49;-1.40;99.90
9219;DHT22;4644;48.858;9.184;2023-02-26T02:50:20;-1.50;99.90
9219;DHT22;4644;48.858;9.184;2023-02-26T02:52:52;-1.50;99.90
9219;DHT22;4644;48.858;9.184;2023-02-26T02:55:22;-1.50;99.90
9219;DHT22;4644;48.858;9.184;2023-02-26T02:57:55;-1.60;99.90
9219;DHT22;4644;48.858;9.184;2023-02-26T03:00:27;-1.60;99.90
9219;DHT22;4644;48.858;9.184;2023-02-26T03:02:59;-1.70;99.90
9219;DHT22;4644;48.858;9.184;2023-02-26T03:05:28;-1.70;99.90
9219;DHT22;4644;48.858;9.184;2023-02-26T03:08:02;-1.80;99.90
9219;DHT22;4644;48.858;9.184;2023-02-26T03:10:31;-1.80;99.90
9219;DHT22;4644;48.858;9.184;2023-02-26T03:12:58;-1.70;99.90
9219;DHT22;4644;48.858;9.184;2023-02-26T03:15:32;-1.80;99.90
9219;DHT22;4644;48.858;9.184;2023-02-26T03:18:10;-1.70;99.90
9219;DHT22;4644;48.858;9.184;2023-02-26T03:20:45;-1.70;99.90
9219;DHT22;4644;48.858;9.184;2023-02-26T03:23:20;-1.70;99.90
9219;DHT22;4644;48.858;9.184;2023-02-26T03:25:50;-1.60;99.90
9219;DHT22;4644;48.858;9.184;2023-02-26T03:28:24;-1.60;99.90
9219;DHT22;4644;48.858;9.184;2023-02-26T03:30:57;-1.60;99.90
9219;DHT22;4644;48.858;9.184;2023-02-26T03:33:32;-1.60;99.90
9219;DHT22;4644;48.858;9.184;2023-02-26T03:36:05;-1.60;99.90
9219;DHT22;4644;48.858;9.184;2023-02-26T03:38:39;-1.60;99.90
9219;DHT22;4644;48.858;9.184;2023-02-26T03:41:09;-1.60;99.90
9219;DHT22;4644;48.858;9.184;2023-02-26T03:43:40;-1.60;99.90
9219;DHT22;4644;48.858;9.184;2023-02-26T03:46:12;-1.60;99.90
9219;DHT22;4644;48.858;9.184;2023-02-26T03:48:42;-1.70;99.90
9219;DHT22;4644;48.858;9.184;2023-02-26T03:51:12;-1.70;99.90
9219;DHT22;4644;48.858;9.184;2023-02-26T03:53:43;-1.70;99.90
9219;DHT22;4644;48.858;9.184;2023-02-26T03:56:15;-1.60;99.90
9219;DHT22;4644;48.858;9.184;2023-02-26T03:58:44;-1.70;99.90
9219;DHT22;4644;48.858;9.184;2023-02-26T04:01:15;-1.70;99.90
9219;DHT22;4644;48.858;9.184;2023-02-26T04:03:48;-1.80;99.90
9219;DHT22;4644;48.858;9.184;2023-02-26T04:06:16;-1.80;99.90
9219;DHT22;4644;48.858;9.184;2023-02-26T04:08:45;-1.80;99.90
9219;DHT22;4644;48.858;9.184;2023-02-26T04:11:15;-1.80;99.90
9219;DHT22;4644;48.858;9.184;2023-02-26T04:13:42;-1.90;99.90
9219;DHT22;4644;48.858;9.184;2023-02-26T04:16:09;-1.90;99.90
9219;DHT22;4644;48.858;9.184;2023-02-26T04:18:37;-1.90;99.90
9219;DHT22;4644;48.858;9.184;2023-02-26T04:21:05;-1.90;99.90
9219;DHT22;4644;48.858;9.184;2023-02-26T04:23:32;-2.00;99.90
9219;DHT22;4644;48.858;9.184;2023-02-26T04:25:59;-2.00;99.90
9219;DHT22;4644;48.858;9.184;2023-02-26T04:28:28;-2.00;99.90
9219;DHT22;4644;48.858;9.184;2023-02-26T04:30:55;-2.10;99.90
9219;DHT22;4644;48.858;9.184;2023-02-26T04:33:22;-2.10;99.90
9219;DHT22;4644;48.858;9.184;2023-02-26T04:35:49;-2.00;99.90
9219;DHT22;4644;48.858;9.184;2023-02-26T04:38:17;-2.10;99.90
9219;DHT22;4644;48.858;9.184;2023-02-26T04:40:44;-2.10;99.90
9219;DHT22;4644;48.858;9.184;2023-02-26T04:43:11;-2.10;99.90
9219;DHT22;4644;48.858;9.184;2023-02-26T04:45:38;-2.20;99.90
9219;DHT22;4644;48.858;9.184;2023-02-26T04:48:05;-2.20;99.90
9219;DHT22;4644;48.858;9.184;2023-02-26T04:50:32;-2.20;99.90
9219;DHT22;4644;48.858;9.184;2023-02-26T04:52:59;-2.20;99.90
9219;DHT22;4644;48.858;9.184;2023-02-26T04:55:28;-2.10;99.90
9219;DHT22;4644;48.858;9.184;2023-02-26T04:57:55;-2.10;99.90
9219;DHT22;4644;48.858;9.184;2023-02-26T05:00:22;-2.00;99.90
9219;DHT22;4644;48.858;9.184;2023-02-26T05:02:50;-2.10;99.90
9219;DHT22;4644;48.858;9.184;2023-02-26T05:05:17;-2.10;99.90
9219;DHT22;4644;48.858;9.184;2023-02-26T05:07:44;-2.10;99.90
9219;DHT22;4644;48.858;9.184;2023-02-26T05:10:11;-2.10;99.90
9219;DHT22;4644;48.858;9.184;2023-02-26T05:12:40;-2.10;99.90
9219;DHT22;4644;48.858;9.184;2023-02-26T05:15:07;-2.10;99.90
9219;DHT22;4644;48.858;9.184;2023-02-26T05:17:35;-2.10;99.90
9219;DHT22;4644;48.858;9.184;2023-02-26T05:20:03;-2.10;99.90
9219;DHT22;4644;48.858;9.184;2023-02-26T05:22:30;-2.20;99.90
9219;DHT22;4644;48.858;9.184;2023-02-26T05:24:57;-2.20;99.90
9219;DHT22;4644;48.858;9.184;2023-02-26T05:27:24;-2.20;99.90
9219;DHT22;4644;48.858;9.184;2023-02-26T05:29:52;-2.20;99.90
9219;DHT22;4644;48.858;9.184;2023-02-26T05:32:19;-2.30;99.90
9219;DHT22;4644;48.858;9.184;2023-02-26T05:34:46;-2.20;99.90
9219;DHT22;4644;48.858;9.184;2023-02-26T05:37:13;-2.30;99.90
9219;DHT22;4644;48.858;9.184;2023-02-26T05:39:40;-2.30;99.90
9219;DHT22;4644;48.858;9.184;2023-02-26T05:42:07;-2.30;99.90
9219;DHT22;4644;48.858;9.184;2023-02-26T05:44:34;-2.30;99.90
9219;DHT22;4644;48.858;9.184;2023-02-26T05:47:03;-2.30;99.90
9219;DHT22;4644;48.858;9.184;2023-02-26T05:49:30;-2.30;99.90
9219;DHT22;4644;48.858;9.184;2023-02-26T05:51:57;-2.40;99.90
9219;DHT22;4644;48.858;9.184;2023-02-26T05:54:24;-2.40;99.90
9219;DHT22;4644;48.858;9.184;2023-02-26T05:56:51;-2.40;99.90
9219;DHT22;4644;48.858;9.184;2023-02-26T05:59:18;-2.40;99.90
9219;DHT22;4644;48.858;9.184;2023-02-26T06:01:45;-2.40;99.90
9219;DHT22;4644;48.858;9.184;2023-02-26T06:04:13;-2.40;99.90
9219;DHT22;4644;48.858;9.184;2023-02-26T06:06:40;-2.30;99.90
9219;DHT22;4644;48.858;9.184;2023-02-26T06:09:07;-2.40;99.90
9219;DHT22;4644;48.858;9.184;2023-02-26T06:11:35;-2.40;99.90
9219;DHT22;4644;48.858;9.184;2023-02-26T06:14:04;-2.40;99.90
9219;DHT22;4644;48.858;9.184;2023-02-26T06:16:31;-2.40;99.90
9219;DHT22;4644;48.858;9.184;2023-02-26T06:19:00;-2.40;99.90
9219;DHT22;4644;48.858;9.184;2023-02-26T06:21:30;-2.40;99.90
9219;DHT22;4644;48.858;9.184;2023-02-26T06:23:57;-2.40;99.90
9219;DHT22;4644;48.858;9.184;2023-02-26T06:26:24;-2.40;99.90
9219;DHT22;4644;48.858;9.184;2023-02-26T06:28:51;-2.40;99.90
9219;DHT22;4644;48.858;9.184;2023-02-26T06:31:18;-2.40;99.90
9219;DHT22;4644;48.858;9.184;2023-02-26T06:33:45;-2.40;99.90
9219;DHT22;4644;48.858;9.184;2023-02-26T06:36:12;-2.40;99.90
9219;DHT22;4644;48.858;9.184;2023-02-26T06:38:40;-2.40;99.90
9219;DHT22;4644;48.858;9.184;2023-02-26T06:41:10;-2.30;99.90
9219;DHT22;4644;48.858;9.184;2023-02-26T06:43:38;-2.30;99.90
9219;DHT22;4644;48.858;9.184;2023-02-26T06:46:05;-2.20;99.90
9219;DHT22;4644;48.858;9.184;2023-02-26T06:48:32;-2.10;99.90
9219;DHT22;4644;48.858;9.184;2023-02-26T06:50:59;-2.00;99.90
9219;DHT22;4644;48.858;9.184;2023-02-26T06:53:26;-1.90;99.90
9219;DHT22;4644;48.858;9.184;2023-02-26T06:55:55;-1.90;99.90
9219;DHT22;4644;48.858;9.184;2023-02-26T06:58:22;-1.80;99.90
9219;DHT22;4644;48.858;9.184;2023-02-26T07:00:49;-1.70;99.90
9219;DHT22;4644;48.858;9.184;2023-02-26T07:03:17;-1.60;99.90
9219;DHT22;4644;48.858;9.184;2023-02-26T07:05:45;-1.60;99.90
9219;DHT22;4644;48.858;9.184;2023-02-26T07:08:12;-1.40;99.90
9219;DHT22;4644;48.858;9.184;2023-02-26T07:10:40;-1.40;99.90
9219;DHT22;4644;48.858;9.184;2023-02-26T07:13:09;-1.30;99.90
9219;DHT22;4644;48.858;9.184;2023-02-26T07:15:36;-1.30;99.90
9219;DHT22;4644;48.858;9.184;2023-02-26T07:18:03;-1.30;99.90
9219;DHT22;4644;48.858;9.184;2023-02-26T07:20:30;-1.30;99.90
9219;DHT22;4644;48.858;9.184;2023-02-26T07:22:58;-1.20;99.90
9219;DHT22;4644;48.858;9.184;2023-02-26T07:25:25;-1.10;99.90
9219;DHT22;4644;48.858;9.184;2023-02-26T07:27:52;-1.10;99.90
9219;DHT22;4644;48.858;9.184;2023-02-26T07:30:22;-1.00;99.90
9219;DHT22;4644;48.858;9.184;2023-02-26T07:32:49;-1.00;99.90
9219;DHT22;4644;48.858;9.184;2023-02-26T07:35:16;-0.90;99.90
9219;DHT22;4644;48.858;9.184;2023-02-26T07:37:43;-0.80;99.90
9219;DHT22;4644;48.858;9.184;2023-02-26T07:40:11;-0.80;99.90
9219;DHT22;4644;48.858;9.184;2023-02-26T07:42:38;-0.70;99.90
9219;DHT22;4644;48.858;9.184;2023-02-26T07:45:06;-0.70;99.90
9219;DHT22;4644;48.858;9.184;2023-02-26T07:47:35;-0.70;99.90
9219;DHT22;4644;48.858;9.184;2023-02-26T07:50:04;-0.70;99.90
9219;DHT22;4644;48.858;9.184;2023-02-26T07:52:31;-0.70;99.90
9219;DHT22;4644;48.858;9.184;2023-02-26T07:54:58;-0.80;99.90
9219;DHT22;4644;48.858;9.184;2023-02-26T07:57:25;-0.80;99.90
9219;DHT22;4644;48.858;9.184;2023-02-26T07:59:52;-0.70;99.90
9219;DHT22;4644;48.858;9.184;2023-02-26T08:02:19;-0.70;99.90
9219;DHT22;4644;48.858;9.184;2023-02-26T08:04:49;-0.50;99.90
9219;DHT22;4644;48.858;9.184;2023-02-26T08:07:16;-0.30;99.90
9219;DHT22;4644;48.858;9.184;2023-02-26T08:09:43;-0.10;99.90
9219;DHT22;4644;48.858;9.184;2023-02-26T08:12:10;0.10;99.90
9219;DHT22;4644;48.858;9.184;2023-02-26T08:14:37;0.00;99.90
9219;DHT22;4644;48.858;9.184;2023-02-26T08:17:06;0.00;99.90
9219;DHT22;4644;48.858;9.184;2023-02-26T08:19:33;0.00;99.90
9219;DHT22;4644;48.858;9.184;2023-02-26T08:22:02;0.00;99.90
9219;DHT22;4644;48.858;9.184;2023-02-26T08:24:29;0.10;99.90
9219;DHT22;4644;48.858;9.184;2023-02-26T08:26:55;0.20;99.90
9219;DHT22;4644;48.858;9.184;2023-02-26T08:29:23;0.20;99.90
9219;DHT22;4644;48.858;9.184;2023-02-26T08:31:50;0.20;99.90
9219;DHT22;4644;48.858;9.184;2023-02-26T08:34:18;0.20;99.90
9219;DHT22;4644;48.858;9.184;2023-02-26T08:36:44;0.30;99.90
9219;DHT22;4644;48.858;9.184;2023-02-26T08:39:13;0.60;99.90
9219;DHT22;4644;48.858;9.184;2023-02-26T08:41:40;1.00;99.90
9219;DHT22;4644;48.858;9.184;2023-02-26T08:44:07;1.20;99.90
9219;DHT22;4644;48.858;9.184;2023-02-26T08:46:34;1.20;99.90
9219;DHT22;4644;48.858;9.184;2023-02-26T08:49:01;1.50;99.90
9219;DHT22;4644;48.858;9.184;2023-02-26T08:51:28;1.70;99.90
9219;DHT22;4644;48.858;9.184;2023-02-26T08:53:55;1.80;99.90
9219;DHT22;4644;48.858;9.184;2023-02-26T08:56:24;2.00;99.90
9219;DHT22;4644;48.858;9.184;2023-02-26T08:58:51;2.20;99.90
9219;DHT22;4644;48.858;9.184;2023-02-26T09:01:18;2.00;99.90
9219;DHT22;4644;48.858;9.184;2023-02-26T09:03:45;1.70;99.90
9219;DHT22;4644;48.858;9.184;2023-02-26T09:06:12;1.40;99.90
9219;DHT22;4644;48.858;9.184;2023-02-26T09:08:39;1.10;99.90
9219;DHT22;4644;48.858;9.184;2023-02-26T09:11:06;0.90;99.90
9219;DHT22;4644;48.858;9.184;2023-02-26T09:13:36;0.80;99.90
9219;DHT22;4644;48.858;9.184;2023-02-26T09:16:04;0.70;99.90
9219;DHT22;4644;48.858;9.184;2023-02-26T09:18:31;0.90;99.90
9219;DHT22;4644;48.858;9.184;2023-02-26T09:20:58;1.00;99.90
9219;DHT22;4644;48.858;9.184;2023-02-26T09:23:26;1.10;99.90
9219;DHT22;4644;48.858;9.184;2023-02-26T09:25:53;1.00;99.90
9219;DHT22;4644;48.858;9.184;2023-02-26T09:28:21;1.00;99.90
9219;DHT22;4644;48.858;9.184;2023-02-26T09:30:52;1.00;99.90
9219;DHT22;4644;48.858;9.184;2023-02-26T09:33:20;0.90;99.90
9219;DHT22;4644;48.858;9.184;2023-02-26T09:35:47;0.80;99.90
9219;DHT22;4644;48.858;9.184;2023-02-26T09:38:22;0.90;99.90
9219;DHT22;4644;48.858;9.184;2023-02-26T09:40:51;0.80;99.90
9219;DHT22;4644;48.858;9.184;2023-02-26T09:43:50;0.90;99.90
9219;DHT22;4644;48.858;9.184;2023-02-26T09:46:31;0.90;99.90
9219;DHT22;4644;48.858;9.184;2023-02-26T09:49:06;0.90;99.90
9219;DHT22;4644;48.858;9.184;2023-02-26T09:51:37;0.80;99.90
9219;DHT22;4644;48.858;9.184;2023-02-26T09:54:13;0.80;99.90
9219;DHT22;4644;48.858;9.184;2023-02-26T09:56:41;0.80;99.90
9219;DHT22;4644;48.858;9.184;2023-02-26T09:59:10;0.80;99.90
9219;DHT22;4644;48.858;9.184;2023-02-26T10:01:43;0.70;99.90
9219;DHT22;4644;48.858;9.184;2023-02-26T10:04:20;0.60;99.90
9219;DHT22;4644;48.858;9.184;2023-02-26T10:06:58;0.60;99.90
9219;DHT22;4644;48.858;9.184;2023-02-26T10:09:33;0.50;99.90
9219;DHT22;4644;48.858;9.184;2023-02-26T10:12:05;0.50;99.90
9219;DHT22;4644;48.858;9.184;2023-02-26T10:14:39;0.50;99.90
9219;DHT22;4644;48.858;9.184;2023-02-26T10:17:17;0.50;99.90
9219;DHT22;4644;48.858;9.184;2023-02-26T10:19:49;0.70;99.90
9219;DHT22;4644;48.858;9.184;2023-02-26T10:22:23;0.70;99.90
9219;DHT22;4644;48.858;9.184;2023-02-26T10:24:55;0.80;99.90
9219;DHT22;4644;48.858;9.184;2023-02-26T10:27:35;0.80;99.90
9219;DHT22;4644;48.858;9.184;2023-02-26T10:30:07;0.90;99.90
9219;DHT22;4644;48.858;9.184;2023-02-26T10:32:44;0.90;99.90
9219;DHT22;4644;48.858;9.184;2023-02-26T10:35:16;1.00;99.90
9219;DHT22;4644;48.858;9.184;2023-02-26T10:37:48;1.10;99.90
9219;DHT22;4644;48.858;9.184;2023-02-26T10:40:25;1.30;99.90
9219;DHT22;4644;48.858;9.184;2023-02-26T10:42:57;1.30;99.90
9219;DHT22;4644;48.858;9.184;2023-02-26T10:45:45;1.40;99.90
9219;DHT22;4644;48.858;9.184;2023-02-26T10:48:26;1.40;99.90
9219;DHT22;4644;48.858;9.184;2023-02-26T10:50:57;1.50;99.90
9219;DHT22;4644;48.858;9.184;2023-02-26T10:53:32;1.50;99.90
9219;DHT22;4644;48.858;9.184;2023-02-26T10:56:04;1.50;99.90
9219;DHT22;4644;48.858;9.184;2023-02-26T10:58:32;1.30;99.90
9219;DHT22;4644;48.858;9.184;2023-02-26T11:00:59;1.10;99.90
9219;DHT22;4644;48.858;9.184;2023-02-26T11:03:31;1.20;99.90
9219;DHT22;4644;48.858;9.184;2023-02-26T11:06:00;1.20;99.90
9219;DHT22;4644;48.858;9.184;2023-02-26T11:08:32;1.20;99.90
9219;DHT22;4644;48.858;9.184;2023-02-26T11:11:01;1.10;99.90
9219;DHT22;4644;48.858;9.184;2023-02-26T11:13:31;1.20;99.90
9219;DHT22;4644;48.858;9.184;2023-02-26T11:16:01;1.10;99.90
9219;DHT22;4644;48.858;9.184;2023-02-26T11:18:35;1.10;99.90
9219;DHT22;4644;48.858;9.184;2023-02-26T11:21:05;1.20;99.90
9219;DHT22;4644;48.858;9.184;2023-02-26T11:23:32;1.30;99.90
9219;DHT22;4644;48.858;9.184;2023-02-26T11:26:04;1.80;99.90
9219;DHT22;4644;48.858;9.184;2023-02-26T11:28:36;2.10;99.90
9219;DHT22;4644;48.858;9.184;2023-02-26T11:31:06;2.20;99.90
9219;DHT22;4644;48.858;9.184;2023-02-26T11:33:38;2.20;99.90
9219;DHT22;4644;48.858;9.184;2023-02-26T11:36:09;2.30;99.90
9219;DHT22;4644;48.858;9.184;2023-02-26T11:38:37;2.40;99.90
9219;DHT22;4644;48.858;9.184;2023-02-26T11:41:05;2.40;99.90
9219;DHT22;4644;48.858;9.184;2023-02-26T11:43:36;2.40;99.90
9219;DHT22;4644;48.858;9.184;2023-02-26T11:46:06;2.40;99.90
9219;DHT22;4644;48.858;9.184;2023-02-26T11:48:39;2.60;99.90
9219;DHT22;4644;48.858;9.184;2023-02-26T11:51:10;2.50;99.90
9219;DHT22;4644;48.858;9.184;2023-02-26T11:53:43;2.40;99.90
9219;DHT22;4644;48.858;9.184;2023-02-26T11:56:24;2.40;99.90
9219;DHT22;4644;48.858;9.184;2023-02-26T11:58:53;2.10;99.90
9219;DHT22;4644;48.858;9.184;2023-02-26T12:01:26;1.90;99.90
9219;DHT22;4644;48.858;9.184;2023-02-26T12:03:58;1.80;99.90
9219;DHT22;4644;48.858;9.184;2023-02-26T12:06:26;1.70;99.90
9219;DHT22;4644;48.858;9.184;2023-02-26T12:08:53;1.70;99.90
9219;DHT22;4644;48.858;9.184;2023-02-26T12:11:50;1.70;99.90
9219;DHT22;4644;48.858;9.184;2023-02-26T12:14:32;1.80;99.90
9219;DHT22;4644;48.858;9.184;2023-02-26T12:17:10;1.80;99.90
9219;DHT22;4644;48.858;9.184;2023-02-26T12:19:46;1.80;99.90
9219;DHT22;4644;48.858;9.184;2023-02-26T12:22:32;1.90;99.90
9219;DHT22;4644;48.858;9.184;2023-02-26T12:25:22;1.80;99.90
9219;DHT22;4644;48.858;9.184;2023-02-26T12:28:15;1.80;99.90
9219;DHT22;4644;48.858;9.184;2023-02-26T12:30:57;1.80;99.90
9219;DHT22;4644;48.858;9.184;2023-02-26T12:33:39;1.80;99.90
9219;DHT22;4644;48.858;9.184;2023-02-26T12:36:26;1.70;99.90
9219;DHT22;4644;48.858;9.184;2023-02-26T12:39:04;1.70;99.90
9219;DHT22;4644;48.858;9.184;2023-02-26T12:41:45;1.60;99.90
9219;DHT22;4644;48.858;9.184;2023-02-26T12:44:24;1.50;99.90
9219;DHT22;4644;48.858;9.184;2023-02-26T12:47:12;1.50;99.90
9219;DHT22;4644;48.858;9.184;2023-02-26T12:49:58;1.50;99.90
9219;DHT22;4644;48.858;9.184;2023-02-26T12:52:57;1.60;99.90
9219;DHT22;4644;48.858;9.184;2023-02-26T12:55:34;1.60;99.90
9219;DHT22;4644;48.858;9.184;2023-02-26T12:58:40;1.60;99.90
9219;DHT22;4644;48.858;9.184;2023-02-26T13:10:20;2.10;99.90
9219;DHT22;4644;48.858;9.184;2023-02-26T13:13:09;2.10;99.90
9219;DHT22;4644;48.858;9.184;2023-02-26T13:15:57;2.10;99.90
9219;DHT22;4644;48.858;9.184;2023-02-26T13:18:33;2.00;99.90
9219;DHT22;4644;48.858;9.184;2023-02-26T13:21:05;2.00;99.90
9219;DHT22;4644;48.858;9.184;2023-02-26T13:23:35;1.90;99.90
9219;DHT22;4644;48.858;9.184;2023-02-26T13:26:08;1.90;99.90
9219;DHT22;4644;48.858;9.184;2023-02-26T13:28:39;1.90;99.90
9219;DHT22;4644;48.858;9.184;2023-02-26T13:31:11;2.00;99.90
9219;DHT22;4644;48.858;9.184;2023-02-26T13:33:39;2.20;99.90
9219;DHT22;4644;48.858;9.184;2023-02-26T13:36:07;2.30;99.90
9219;DHT22;4644;48.858;9.184;2023-02-26T13:38:44;2.50;99.90
9219;DHT22;4644;48.858;9.184;2023-02-26T13:41:20;2.30;99.90
9219;DHT22;4644;48.858;9.184;2023-02-26T13:44:08;2.40;99.90
9219;DHT22;4644;48.858;9.184;2023-02-26T13:46:47;2.20;99.90
9219;DHT22;4644;48.858;9.184;2023-02-26T13:49:24;2.30;99.90
9219;DHT22;4644;48.858;9.184;2023-02-26T13:51:54;2.30;99.90
9219;DHT22;4644;48.858;9.184;2023-02-26T13:54:33;2.30;99.90
9219;DHT22;4644;48.858;9.184;2023-02-26T14:00:17;2.40;99.90
9219;DHT22;4644;48.858;9.184;2023-02-26T14:02:52;2.40;99.90
9219;DHT22;4644;48.858;9.184;2023-02-26T14:14:24;2.20;99.90
9219;DHT22;4644;48.858;9.184;2023-02-26T14:17:18;2.00;99.90
9219;DHT22;4644;48.858;9.184;2023-02-26T14:22:52;2.30;99.90
9219;DHT22;4644;48.858;9.184;2023-02-26T14:25:28;2.20;99.90
9219;DHT22;4644;48.858;9.184;2023-02-26T14:28:40;2.30;99.90
9219;DHT22;4644;48.858;9.184;2023-02-26T14:31:18;2.30;99.90
9219;DHT22;4644;48.858;9.184;2023-02-26T14:33:58;2.30;99.90
9219;DHT22;4644;48.858;9.184;2023-02-26T14:36:33;2.30;99.90
9219;DHT22;4644;48.858;9.184;2023-02-26T14:39:04;2.40;99.90
9219;DHT22;4644;48.858;9.184;2023-02-26T14:41:37;2.40;99.90
9219;DHT22;4644;48.858;9.184;2023-02-26T14:44:13;2.40;99.90
9219;DHT22;4644;48.858;9.184;2023-02-26T14:46:42;2.40;99.90
9219;DHT22;4644;48.858;9.184;2023-02-26T14:49:17;2.50;99.90
9219;DHT22;4644;48.858;9.184;2023-02-26T14:51:53;2.40;99.90
9219;DHT22;4644;48.858;9.184;2023-02-26T14:54:49;2.50;99.90
9219;DHT22;4644;48.858;9.184;2023-02-26T14:57:27;2.50;99.90
9219;DHT22;4644;48.858;9.184;2023-02-26T15:00:06;2.40;99.90
9219;DHT22;4644;48.858;9.184;2023-02-26T15:05:41;2.30;99.90
9219;DHT22;4644;48.858;9.184;2023-02-26T15:08:22;2.30;99.90
9219;DHT22;4644;48.858;9.184;2023-02-26T15:11:03;2.40;99.90
9219;DHT22;4644;48.858;9.184;2023-02-26T15:13:50;2.30;99.90
9219;DHT22;4644;48.858;9.184;2023-02-26T15:16:28;2.30;99.90
9219;DHT22;4644;48.858;9.184;2023-02-26T15:19:32;2.30;99.90
9219;DHT22;4644;48.858;9.184;2023-02-26T15:22:12;2.20;99.90
9219;DHT22;4644;48.858;9.184;2023-02-26T15:24:42;2.20;99.90
9219;DHT22;4644;48.858;9.184;2023-02-26T15:27:15;2.00;99.90
9219;DHT22;4644;48.858;9.184;2023-02-26T15:29:43;1.90;99.90
9219;DHT22;4644;48.858;9.184;2023-02-26T15:32:16;1.80;99.90
9219;DHT22;4644;48.858;9.184;2023-02-26T15:34:46;1.80;99.90
9219;DHT22;4644;48.858;9.184;2023-02-26T15:37:21;1.80;99.90
9219;DHT22;4644;48.858;9.184;2023-02-26T15:39:49;1.90;99.90
9219;DHT22;4644;48.858;9.184;2023-02-26T15:42:17;1.90;99.90
9219;DHT22;4644;48.858;9.184;2023-02-26T15:44:45;1.90;99.90
9219;DHT22;4644;48.858;9.184;2023-02-26T15:47:14;2.00;99.90
9219;DHT22;4644;48.858;9.184;2023-02-26T15:49:44;2.00;99.90
9219;DHT22;4644;48.858;9.184;2023-02-26T15:52:16;2.10;99.90
9219;DHT22;4644;48.858;9.184;2023-02-26T15:54:48;2.10;99.90
9219;DHT22;4644;48.858;9.184;2023-02-26T15:57:16;2.20;99.90
9219;DHT22;4644;48.858;9.184;2023-02-26T15:59:45;2.30;99.90
9219;DHT22;4644;48.858;9.184;2023-02-26T16:02:14;2.10;99.80
9219;DHT22;4644;48.858;9.184;2023-02-26T16:04:42;2.00;99.50
9219;DHT22;4644;48.858;9.184;2023-02-26T16:07:10;1.90;99.90
9219;DHT22;4644;48.858;9.184;2023-02-26T16:09:41;1.80;99.90
9219;DHT22;4644;48.858;9.184;2023-02-26T16:12:13;1.60;99.90
9219;DHT22;4644;48.858;9.184;2023-02-26T16:14:44;1.50;99.90
9219;DHT22;4644;48.858;9.184;2023-02-26T16:17:18;1.50;99.90
9219;DHT22;4644;48.858;9.184;2023-02-26T16:19:50;1.40;99.90
9219;DHT22;4644;48.858;9.184;2023-02-26T16:22:21;1.50;99.90
9219;DHT22;4644;48.858;9.184;2023-02-26T16:24:53;1.40;99.90
9219;DHT22;4644;48.858;9.184;2023-02-26T16:27:25;1.40;99.90
9219;DHT22;4644;48.858;9.184;2023-02-26T16:29:55;1.40;99.70
9219;DHT22;4644;48.858;9.184;2023-02-26T16:32:28;1.30;99.60
9219;DHT22;4644;48.858;9.184;2023-02-26T16:34:56;1.30;99.90
9219;DHT22;4644;48.858;9.184;2023-02-26T16:37:31;1.20;99.90
9219;DHT22;4644;48.858;9.184;2023-02-26T16:40:15;1.20;99.90
9219;DHT22;4644;48.858;9.184;2023-02-26T16:42:45;1.20;99.90
9219;DHT22;4644;48.858;9.184;2023-02-26T16:45:45;1.20;99.90
9219;DHT22;4644;48.858;9.184;2023-02-26T16:48:23;1.20;99.90
9219;DHT22;4644;48.858;9.184;2023-02-26T16:50:56;1.20;99.90
9219;DHT22;4644;48.858;9.184;2023-02-26T16:53:31;1.20;99.50
9219;DHT22;4644;48.858;9.184;2023-02-26T16:56:01;1.20;99.90
9219;DHT22;4644;48.858;9.184;2023-02-26T16:58:30;1.10;99.50
9219;DHT22;4644;48.858;9.184;2023-02-26T17:01:07;1.10;99.30
9219;DHT22;4644;48.858;9.184;2023-02-26T17:03:35;1.10;99.30
9219;DHT22;4644;48.858;9.184;2023-02-26T17:06:07;1.00;99.20
9219;DHT22;4644;48.858;9.184;2023-02-26T17:08:41;1.00;99.20
9219;DHT22;4644;48.858;9.184;2023-02-26T17:11:18;0.90;99.40